Essex, Maryland
Current Conditions -  °F | °C
As of 12:27 AM on Monday 20 Oct 2014 (Local Time) from KMTN Reporting Station
Clear Clear  
Wind Chill:   Ceiling: Unl
Heat Index:   Visibility: 10mi
Dew Point:   Wind: 0mph
Humidity: 87%   Direction: NA
Pressure: 30.12"   Gusts: NA
Location:  39.31°N, 76.48°W
Report Text: KMTN 200427Z AUTO 00000KT 10SM CLR 06/04 A3012 RMK AO2
Loading
Personal Weather Stations






























Interactive Weather Map
Tropical Storm Tracking
New forecast layout! Learn more

10-Day Weather Forecast

Advertisements
Track Severe Weather on mobile